sensor_id;sensor_type;location;lat;lon;timestamp;pressure;altitude;pressure_sealevel;temperature;humidity
36092;BME280;22147;52.388;13.390;2023-05-23T00:00:21;100618.44;;;14.91;76.62
36092;BME280;22147;52.388;13.390;2023-05-23T00:02:51;100613.59;;;14.88;76.94
36092;BME280;22147;52.388;13.390;2023-05-23T00:05:21;100612.22;;;14.82;78.06
36092;BME280;22147;52.388;13.390;2023-05-23T00:07:51;100604.09;;;14.77;78.83
36092;BME280;22147;52.388;13.390;2023-05-23T00:10:21;100601.13;;;14.70;79.24
36092;BME280;22147;52.388;13.390;2023-05-23T00:12:51;100603.00;;;14.65;78.77
36092;BME280;22147;52.388;13.390;2023-05-23T00:15:22;100596.06;;;14.59;79.64
36092;BME280;22147;52.388;13.390;2023-05-23T00:17:52;100594.31;;;14.55;79.41
36092;BME280;22147;52.388;13.390;2023-05-23T00:20:21;100584.22;;;14.50;79.46
36092;BME280;22147;52.388;13.390;2023-05-23T00:22:51;100589.69;;;14.46;80.04
36092;BME280;22147;52.388;13.390;2023-05-23T00:25:26;100578.81;;;14.41;79.53
36092;BME280;22147;52.388;13.390;2023-05-23T00:28:03;100574.72;;;14.39;79.11
36092;BME280;22147;52.388;13.390;2023-05-23T00:30:34;100577.44;;;14.35;79.15
36092;BME280;22147;52.388;13.390;2023-05-23T00:33:05;100577.44;;;14.35;79.64
36092;BME280;22147;52.388;13.390;2023-05-23T00:35:35;100585.09;;;14.38;79.52
36092;BME280;22147;52.388;13.390;2023-05-23T00:38:05;100577.16;;;14.40;80.19
36092;BME280;22147;52.388;13.390;2023-05-23T00:40:36;100567.88;;;14.36;79.50
36092;BME280;22147;52.388;13.390;2023-05-23T00:43:06;100571.00;;;14.35;79.14
36092;BME280;22147;52.388;13.390;2023-05-23T00:45:37;100572.19;;;14.34;78.93
36092;BME280;22147;52.388;13.390;2023-05-23T00:48:07;100574.06;;;14.30;79.50
36092;BME280;22147;52.388;13.390;2023-05-23T00:50:39;100569.22;;;14.27;79.63
36092;BME280;22147;52.388;13.390;2023-05-23T00:53:11;100571.56;;;14.24;79.73
36092;BME280;22147;52.388;13.390;2023-05-23T00:55:44;100556.28;;;14.22;79.32
36092;BME280;22147;52.388;13.390;2023-05-23T00:58:15;100555.84;;;14.20;79.58
36092;BME280;22147;52.388;13.390;2023-05-23T01:00:46;100557.47;;;14.21;79.71
36092;BME280;22147;52.388;13.390;2023-05-23T01:03:19;100543.41;;;14.17;80.00
36092;BME280;22147;52.388;13.390;2023-05-23T01:05:50;100550.88;;;14.13;79.84
36092;BME280;22147;52.388;13.390;2023-05-23T01:08:21;100551.59;;;14.10;80.06
36092;BME280;22147;52.388;13.390;2023-05-23T01:10:52;100546.38;;;14.09;80.02
36092;BME280;22147;52.388;13.390;2023-05-23T01:13:42;100546.00;;;14.10;80.10
36092;BME280;22147;52.388;13.390;2023-05-23T01:16:37;100546.38;;;14.09;80.92
36092;BME280;22147;52.388;13.390;2023-05-23T01:19:57;100541.25;;;14.11;80.37
36092;BME280;22147;52.388;13.390;2023-05-23T01:28:23;100552.41;;;14.11;80.42
36092;BME280;22147;52.388;13.390;2023-05-23T01:31:03;100555.75;;;14.16;81.40
36092;BME280;22147;52.388;13.390;2023-05-23T01:33:39;100547.72;;;14.15;80.89
36092;BME280;22147;52.388;13.390;2023-05-23T01:36:12;100548.53;;;14.15;81.88
36092;BME280;22147;52.388;13.390;2023-05-23T01:38:44;100540.88;;;14.12;82.29
36092;BME280;22147;52.388;13.390;2023-05-23T01:41:14;100536.84;;;14.10;82.57
36092;BME280;22147;52.388;13.390;2023-05-23T01:43:46;100526.81;;;14.09;82.92
36092;BME280;22147;52.388;13.390;2023-05-23T01:46:18;100531.16;;;14.06;83.46
36092;BME280;22147;52.388;13.390;2023-05-23T01:48:53;100523.56;;;14.07;82.78
36092;BME280;22147;52.388;13.390;2023-05-23T01:51:25;100523.56;;;14.07;82.68
36092;BME280;22147;52.388;13.390;2023-05-23T01:53:56;100517.28;;;14.10;82.42
36092;BME280;22147;52.388;13.390;2023-05-23T01:56:27;100529.63;;;14.09;82.42
36092;BME280;22147;52.388;13.390;2023-05-23T01:58:57;100534.41;;;14.08;83.46
36092;BME280;22147;52.388;13.390;2023-05-23T02:01:29;100528.69;;;14.04;83.86
36092;BME280;22147;52.388;13.390;2023-05-23T02:04:00;100538.25;;;14.03;84.50
36092;BME280;22147;52.388;13.390;2023-05-23T02:06:30;100541.41;;;14.02;85.00
36092;BME280;22147;52.388;13.390;2023-05-23T02:09:00;100541.06;;;14.03;85.05
36092;BME280;22147;52.388;13.390;2023-05-23T02:11:31;100543.47;;;14.05;87.45
36092;BME280;22147;52.388;13.390;2023-05-23T02:14:01;100545.56;;;14.08;89.61
36092;BME280;22147;52.388;13.390;2023-05-23T02:16:31;100535.47;;;14.03;89.33
36092;BME280;22147;52.388;13.390;2023-05-23T02:19:02;100535.69;;;13.98;90.16
36092;BME280;22147;52.388;13.390;2023-05-23T02:21:33;100523.16;;;13.92;91.04
36092;BME280;22147;52.388;13.390;2023-05-23T02:24:04;100520.75;;;13.91;91.00
36092;BME280;22147;52.388;13.390;2023-05-23T02:26:34;100512.72;;;13.89;90.96
36092;BME280;22147;52.388;13.390;2023-05-23T02:29:05;100522.63;;;13.87;91.56
36092;BME280;22147;52.388;13.390;2023-05-23T02:31:35;100515.41;;;13.85;91.90
36092;BME280;22147;52.388;13.390;2023-05-23T02:34:02;100518.19;;;13.85;92.24
36092;BME280;22147;52.388;13.390;2023-05-23T02:36:31;100522.25;;;13.88;92.91
36092;BME280;22147;52.388;13.390;2023-05-23T02:38:59;100525.03;;;13.88;91.97
36092;BME280;22147;52.388;13.390;2023-05-23T02:41:27;100510.75;;;13.90;92.54
36092;BME280;22147;52.388;13.390;2023-05-23T02:43:57;100521.09;;;13.89;92.81
36092;BME280;22147;52.388;13.390;2023-05-23T02:46:27;100518.66;;;13.88;93.18
36092;BME280;22147;52.388;13.390;2023-05-23T02:48:56;100517.03;;;13.87;93.29
36092;BME280;22147;52.388;13.390;2023-05-23T02:51:24;100510.63;;;13.86;94.56
36092;BME280;22147;52.388;13.390;2023-05-23T02:53:53;100515.88;;;13.88;94.13
36092;BME280;22147;52.388;13.390;2023-05-23T02:56:21;100519.56;;;13.92;91.87
36092;BME280;22147;52.388;13.390;2023-05-23T02:58:49;100525.59;;;13.94;91.65
36092;BME280;22147;52.388;13.390;2023-05-23T03:01:21;100524.00;;;13.93;93.00
36092;BME280;22147;52.388;13.390;2023-05-23T03:03:52;100526.41;;;13.94;93.66
36092;BME280;22147;52.388;13.390;2023-05-23T03:06:22;100518.03;;;13.94;96.08
36092;BME280;22147;52.388;13.390;2023-05-23T03:08:52;100518.03;;;13.94;95.62
36092;BME280;22147;52.388;13.390;2023-05-23T03:11:23;100524.00;;;13.93;94.68
36092;BME280;22147;52.388;13.390;2023-05-23T03:13:53;100525.59;;;13.94;94.76
36092;BME280;22147;52.388;13.390;2023-05-23T03:16:23;100542.72;;;13.92;98.01
36092;BME280;22147;52.388;13.390;2023-05-23T03:18:53;100540.75;;;13.93;98.39
36092;BME280;22147;52.388;13.390;2023-05-23T03:21:24;100537.59;;;13.94;98.73
36092;BME280;22147;52.388;13.390;2023-05-23T03:23:54;100538.31;;;13.91;98.76
36092;BME280;22147;52.388;13.390;2023-05-23T03:26:23;100524.59;;;13.86;99.41
36092;BME280;22147;52.388;13.390;2023-05-23T03:28:52;100524.97;;;13.84;100.00
36092;BME280;22147;52.388;13.390;2023-05-23T03:31:20;100529.72;;;13.84;100.00
36092;BME280;22147;52.388;13.390;2023-05-23T03:33:51;100510.56;;;13.82;100.00
36092;BME280;22147;52.388;13.390;2023-05-23T03:36:19;100513.78;;;13.84;100.00
36092;BME280;22147;52.388;13.390;2023-05-23T03:38:49;100512.63;;;13.85;100.00
36092;BME280;22147;52.388;13.390;2023-05-23T03:41:18;100491.53;;;13.88;100.00
36092;BME280;22147;52.388;13.390;2023-05-23T03:43:46;100489.22;;;13.90;100.00
36092;BME280;22147;52.388;13.390;2023-05-23T03:46:15;100490.84;;;13.91;100.00
36092;BME280;22147;52.388;13.390;2023-05-23T03:48:43;100486.88;;;13.92;100.00
36092;BME280;22147;52.388;13.390;2023-05-23T03:51:11;100488.97;;;13.95;96.68
36092;BME280;22147;52.388;13.390;2023-05-23T03:53:43;100482.66;;;13.98;94.89
36092;BME280;22147;52.388;13.390;2023-05-23T03:56:11;100473.22;;;14.03;95.07
36092;BME280;22147;52.388;13.390;2023-05-23T03:58:40;100460.16;;;14.07;94.17
36092;BME280;22147;52.388;13.390;2023-05-23T04:01:08;100468.97;;;14.09;93.61
36092;BME280;22147;52.388;13.390;2023-05-23T04:03:37;100473.03;;;14.12;90.77
36092;BME280;22147;52.388;13.390;2023-05-23T04:06:06;100499.81;;;14.13;91.75
36092;BME280;22147;52.388;13.390;2023-05-23T04:08:34;100515.94;;;14.19;90.32
36092;BME280;22147;52.388;13.390;2023-05-23T04:11:02;100525.34;;;14.27;91.28
36092;BME280;22147;52.388;13.390;2023-05-23T04:13:31;100524.94;;;14.29;92.25
36092;BME280;22147;52.388;13.390;2023-05-23T04:16:00;100517.31;;;14.25;94.18
36092;BME280;22147;52.388;13.390;2023-05-23T04:18:34;100526.03;;;14.24;95.67
36092;BME280;22147;52.388;13.390;2023-05-23T04:21:08;100524.41;;;14.23;96.59
36092;BME280;22147;52.388;13.390;2023-05-23T04:23:38;100521.16;;;14.21;97.06
36092;BME280;22147;52.388;13.390;2023-05-23T04:26:08;100516.75;;;14.20;98.78
36092;BME280;22147;52.388;13.390;2023-05-23T04:28:39;100511.16;;;14.20;99.05
36092;BME280;22147;52.388;13.390;2023-05-23T04:31:09;100511.16;;;14.20;99.35
36092;BME280;22147;52.388;13.390;2023-05-23T04:33:40;100511.16;;;14.20;99.42
36092;BME280;22147;52.388;13.390;2023-05-23T04:36:10;100510.00;;;14.21;99.88
36092;BME280;22147;52.388;13.390;2023-05-23T04:38:40;100506.47;;;14.24;99.96
36092;BME280;22147;52.388;13.390;2023-05-23T04:41:10;100496.59;;;14.27;100.00
36092;BME280;22147;52.388;13.390;2023-05-23T04:43:41;100500.19;;;14.27;100.00
36092;BME280;22147;52.388;13.390;2023-05-23T04:46:11;100509.38;;;14.28;100.00
36092;BME280;22147;52.388;13.390;2023-05-23T04:48:42;100502.53;;;14.25;100.00
36092;BME280;22147;52.388;13.390;2023-05-23T04:51:13;100502.53;;;14.25;100.00
36092;BME280;22147;52.388;13.390;2023-05-23T04:53:43;100505.56;;;14.20;100.00
36092;BME280;22147;52.388;13.390;2023-05-23T04:56:15;100516.28;;;14.18;100.00
36092;BME280;22147;52.388;13.390;2023-05-23T04:58:49;100511.78;;;14.13;100.00
36092;BME280;22147;52.388;13.390;2023-05-23T05:01:20;100506.19;;;14.13;100.00
36092;BME280;22147;52.388;13.390;2023-05-23T05:03:53;100505.38;;;14.13;100.00
36092;BME280;22147;52.388;13.390;2023-05-23T05:06:22;100507.72;;;14.11;100.00
36092;BME280;22147;52.388;13.390;2023-05-23T05:08:50;100506.38;;;14.04;100.00
36092;BME280;22147;52.388;13.390;2023-05-23T05:11:18;100501.97;;;14.03;100.00
36092;BME280;22147;52.388;13.390;2023-05-23T05:13:47;100503.91;;;14.03;100.00
36092;BME280;22147;52.388;13.390;2023-05-23T05:16:15;100504.38;;;14.05;100.00
36092;BME280;22147;52.388;13.390;2023-05-23T05:18:46;100504.81;;;14.07;100.00
36092;BME280;22147;52.388;13.390;2023-05-23T05:21:14;100508.06;;;14.09;100.00
36092;BME280;22147;52.388;13.390;2023-05-23T05:23:44;100501.34;;;14.10;100.00
36092;BME280;22147;52.388;13.390;2023-05-23T05:26:13;100505.38;;;14.13;100.00
36092;BME280;22147;52.388;13.390;2023-05-23T05:28:43;100505.38;;;14.13;100.00
36092;BME280;22147;52.388;13.390;2023-05-23T05:31:13;100514.91;;;14.12;100.00
36092;BME280;22147;52.388;13.390;2023-05-23T05:33:42;100511.31;;;14.11;100.00
36092;BME280;22147;52.388;13.390;2023-05-23T05:36:14;100512.06;;;14.08;100.00
36092;BME280;22147;52.388;13.390;2023-05-23T05:38:42;100524.47;;;14.11;100.00
36092;BME280;22147;52.388;13.390;2023-05-23T05:41:11;100523.28;;;14.12;100.00
36092;BME280;22147;52.388;13.390;2023-05-23T05:43:39;100524.47;;;14.11;100.00
36092;BME280;22147;52.388;13.390;2023-05-23T05:46:10;100529.63;;;14.09;100.00
36092;BME280;22147;52.388;13.390;2023-05-23T05:48:40;100530.78;;;14.08;100.00
36092;BME280;22147;52.388;13.390;2023-05-23T05:51:10;100531.16;;;14.06;100.00
36092;BME280;22147;52.388;13.390;2023-05-23T05:53:41;100528.25;;;14.02;100.00
36092;BME280;22147;52.388;13.390;2023-05-23T05:56:11;100522.19;;;14.00;100.00
36092;BME280;22147;52.388;13.390;2023-05-23T05:58:42;100517.53;;;14.04;100.00
36092;BME280;22147;52.388;13.390;2023-05-23T06:01:12;100518.44;;;14.09;100.00
36092;BME280;22147;52.388;13.390;2023-05-23T06:03:43;100514.69;;;14.17;100.00
36092;BME280;22147;52.388;13.390;2023-05-23T06:06:14;100517.56;;;14.20;100.00
36092;BME280;22147;52.388;13.390;2023-05-23T06:08:44;100515.31;;;14.26;100.00
36092;BME280;22147;52.388;13.390;2023-05-23T06:11:14;100518.31;;;14.33;100.00
36092;BME280;22147;52.388;13.390;2023-05-23T06:13:44;100508.94;;;14.41;100.00
36092;BME280;22147;52.388;13.390;2023-05-23T06:16:15;100511.19;;;14.52;100.00
36092;BME280;22147;52.388;13.390;2023-05-23T06:18:45;100503.84;;;14.59;100.00
36092;BME280;22147;52.388;13.390;2023-05-23T06:21:16;100510.50;;;14.71;100.00
36092;BME280;22147;52.388;13.390;2023-05-23T06:23:46;100493.47;;;14.76;100.00
36092;BME280;22147;52.388;13.390;2023-05-23T06:26:16;100499.06;;;14.76;100.00
36092;BME280;22147;52.388;13.390;2023-05-23T06:28:46;100509.59;;;14.82;100.00
36092;BME280;22147;52.388;13.390;2023-05-23T06:31:17;100512.28;;;14.95;100.00
36092;BME280;22147;52.388;13.390;2023-05-23T06:33:47;100524.19;;;15.07;100.00
36092;BME280;22147;52.388;13.390;2023-05-23T06:36:17;100519.09;;;15.13;100.00
36092;BME280;22147;52.388;13.390;2023-05-23T06:38:47;100518.03;;;15.18;100.00
36092;BME280;22147;52.388;13.390;2023-05-23T06:41:17;100518.41;;;15.36;100.00
36092;BME280;22147;52.388;13.390;2023-05-23T06:43:48;100525.00;;;15.63;100.00
36092;BME280;22147;52.388;13.390;2023-05-23T06:46:18;100527.09;;;16.05;100.00
36092;BME280;22147;52.388;13.390;2023-05-23T06:48:48;100521.84;;;16.46;99.78
36092;BME280;22147;52.388;13.390;2023-05-23T06:51:35;100520.03;;;17.03;97.68
36092;BME280;22147;52.388;13.390;2023-05-23T06:54:05;100518.44;;;17.59;79.35
36092;BME280;22147;52.388;13.390;2023-05-23T06:56:36;100526.50;;;17.95;75.22
36092;BME280;22147;52.388;13.390;2023-05-23T06:59:06;100518.28;;;18.54;77.66
36092;BME280;22147;52.388;13.390;2023-05-23T07:01:36;100516.31;;;19.02;71.34
36092;BME280;22147;52.388;13.390;2023-05-23T07:04:06;100513.66;;;19.27;73.54
36092;BME280;22147;52.388;13.390;2023-05-23T07:06:36;100509.75;;;19.46;68.37
36092;BME280;22147;52.388;13.390;2023-05-23T07:09:06;100506.50;;;19.37;69.44
36092;BME280;22147;52.388;13.390;2023-05-23T07:11:36;100517.06;;;19.62;68.82
36092;BME280;22147;52.388;13.390;2023-05-23T07:14:08;100514.00;;;19.88;67.68
36092;BME280;22147;52.388;13.390;2023-05-23T07:16:38;100516.94;;;20.28;66.38
36092;BME280;22147;52.388;13.390;2023-05-23T07:19:08;100516.09;;;20.13;68.33
36092;BME280;22147;52.388;13.390;2023-05-23T07:21:38;100519.28;;;20.08;68.59
36092;BME280;22147;52.388;13.390;2023-05-23T07:24:08;100518.06;;;19.98;69.27
36092;BME280;22147;52.388;13.390;2023-05-23T07:26:37;100520.53;;;20.18;69.70
36092;BME280;22147;52.388;13.390;2023-05-23T07:29:07;100520.97;;;20.34;61.87
36092;BME280;22147;52.388;13.390;2023-05-23T07:31:37;100524.22;;;20.43;63.31
36092;BME280;22147;52.388;13.390;2023-05-23T07:34:07;100516.19;;;20.67;64.15
36092;BME280;22147;52.388;13.390;2023-05-23T07:36:37;100518.22;;;20.99;61.07
36092;BME280;22147;52.388;13.390;2023-05-23T07:39:09;100511.78;;;20.73;60.20
36092;BME280;22147;52.388;13.390;2023-05-23T07:41:39;100516.13;;;20.24;61.17
36092;BME280;22147;52.388;13.390;2023-05-23T07:44:09;100523.28;;;20.00;61.77
36092;BME280;22147;52.388;13.390;2023-05-23T07:46:39;100512.91;;;20.29;61.71
36092;BME280;22147;52.388;13.390;2023-05-23T07:49:09;100510.84;;;20.11;60.29
36092;BME280;22147;52.388;13.390;2023-05-23T07:51:39;100516.03;;;20.02;60.06
36092;BME280;22147;52.388;13.390;2023-05-23T07:54:10;100516.75;;;19.74;62.77
36092;BME280;22147;52.388;13.390;2023-05-23T07:56:41;100511.59;;;19.94;63.02
36092;BME280;22147;52.388;13.390;2023-05-23T07:59:15;100520.06;;;19.98;63.42
36092;BME280;22147;52.388;13.390;2023-05-23T08:01:45;100523.72;;;19.98;64.24
36092;BME280;22147;52.388;13.390;2023-05-23T08:04:14;100531.69;;;19.89;66.35
36092;BME280;22147;52.388;13.390;2023-05-23T08:06:43;100536.25;;;20.26;66.96
36092;BME280;22147;52.388;13.390;2023-05-23T08:09:33;100537.88;;;20.27;66.97
36092;BME280;22147;52.388;13.390;2023-05-23T08:12:04;100536.25;;;20.22;67.11
36092;BME280;22147;52.388;13.390;2023-05-23T08:14:40;100535.47;;;20.40;67.42
36092;BME280;22147;52.388;13.390;2023-05-23T08:17:19;100530.72;;;20.72;66.79
36092;BME280;22147;52.388;13.390;2023-05-23T08:19:50;100529.50;;;20.73;67.02
36092;BME280;22147;52.388;13.390;2023-05-23T08:22:20;100537.91;;;20.41;68.84
36092;BME280;22147;52.388;13.390;2023-05-23T08:24:50;100543.13;;;20.46;69.99
36092;BME280;22147;52.388;13.390;2023-05-23T08:27:20;100546.78;;;20.47;72.26
36092;BME280;22147;52.388;13.390;2023-05-23T08:29:50;100548.81;;;20.68;72.49
36092;BME280;22147;52.388;13.390;2023-05-23T08:32:19;100553.63;;;20.39;71.05
36092;BME280;22147;52.388;13.390;2023-05-23T08:34:49;100547.66;;;20.62;72.06
36092;BME280;22147;52.388;13.390;2023-05-23T08:37:19;100546.44;;;20.91;70.36
36092;BME280;22147;52.388;13.390;2023-05-23T08:39:49;100553.25;;;21.30;69.80
36092;BME280;22147;52.388;13.390;2023-05-23T08:42:21;100551.66;;;21.36;68.68
36092;BME280;22147;52.388;13.390;2023-05-23T08:44:51;100557.31;;;21.22;70.40
36092;BME280;22147;52.388;13.390;2023-05-23T08:47:21;100567.78;;;20.60;71.92
36092;BME280;22147;52.388;13.390;2023-05-23T08:49:54;100560.03;;;20.28;74.82
36092;BME280;22147;52.388;13.390;2023-05-23T08:52:28;100566.88;;;20.31;77.26
36092;BME280;22147;52.388;13.390;2023-05-23T08:55:03;100569.81;;;20.92;76.27
36092;BME280;22147;52.388;13.390;2023-05-23T08:57:35;100575.47;;;20.99;72.31
36092;BME280;22147;52.388;13.390;2023-05-23T09:00:07;100566.56;;;21.19;74.53
36092;BME280;22147;52.388;13.390;2023-05-23T09:02:43;100580.31;;;21.27;75.02
36092;BME280;22147;52.388;13.390;2023-05-23T09:05:14;100582.31;;;21.34;75.98
36092;BME280;22147;52.388;13.390;2023-05-23T09:07:46;100580.31;;;21.24;74.78
36092;BME280;22147;52.388;13.390;2023-05-23T09:10:18;100587.53;;;21.39;74.43
36092;BME280;22147;52.388;13.390;2023-05-23T09:12:49;100582.69;;;21.40;73.53
36092;BME280;22147;52.388;13.390;2023-05-23T09:15:19;100579.84;;;21.65;74.46
36092;BME280;22147;52.388;13.390;2023-05-23T09:17:51;100587.94;;;21.59;74.14
36092;BME280;22147;52.388;13.390;2023-05-23T09:20:21;100588.31;;;21.65;74.23
36092;BME280;22147;52.388;13.390;2023-05-23T09:22:54;100597.16;;;21.78;74.63
36092;BME280;22147;52.388;13.390;2023-05-23T09:25:25;100585.78;;;22.03;76.70
36092;BME280;22147;52.388;13.390;2023-05-23T09:27:56;100591.88;;;21.90;72.87
36092;BME280;22147;52.388;13.390;2023-05-23T09:30:33;100594.38;;;21.74;74.03
36092;BME280;22147;52.388;13.390;2023-05-23T09:33:03;100599.25;;;21.34;74.24
36092;BME280;22147;52.388;13.390;2023-05-23T09:35:34;100585.97;;;20.91;79.31
36092;BME280;22147;52.388;13.390;2023-05-23T09:38:07;100599.25;;;20.77;83.51
36092;BME280;22147;52.388;13.390;2023-05-23T09:40:37;100595.09;;;20.34;86.73
36092;BME280;22147;52.388;13.390;2023-05-23T09:43:16;100606.38;;;20.34;90.08
36092;BME280;22147;52.388;13.390;2023-05-23T09:45:47;100594.59;;;20.14;91.52
36092;BME280;22147;52.388;13.390;2023-05-23T09:48:17;100602.56;;;19.91;93.15
36092;BME280;22147;52.388;13.390;2023-05-23T09:50:46;100611.81;;;19.91;94.32
36092;BME280;22147;52.388;13.390;2023-05-23T09:53:18;100609.00;;;19.88;95.88
36092;BME280;22147;52.388;13.390;2023-05-23T09:55:50;100612.22;;;19.90;96.76
36092;BME280;22147;52.388;13.390;2023-05-23T09:58:22;100598.59;;;20.06;97.04
36092;BME280;22147;52.388;13.390;2023-05-23T10:00:54;100615.41;;;19.85;100.00
36092;BME280;22147;52.388;13.390;2023-05-23T10:03:36;100607.25;;;19.69;100.00
36092;BME280;22147;52.388;13.390;2023-05-23T10:06:25;100607.50;;;19.46;100.00
36092;BME280;22147;52.388;13.390;2023-05-23T10:09:04;100605.38;;;19.28;100.00
36092;BME280;22147;52.388;13.390;2023-05-23T10:14:29;100603.31;;;19.77;100.00
36092;BME280;22147;52.388;13.390;2023-05-23T10:17:18;100602.34;;;20.39;100.00
36092;BME280;22147;52.388;13.390;2023-05-23T10:20:10;100600.06;;;20.91;95.98
36092;BME280;22147;52.388;13.390;2023-05-23T10:22:41;100609.75;;;20.94;96.03
36092;BME280;22147;52.388;13.390;2023-05-23T10:25:11;100613.63;;;20.36;97.70
36092;BME280;22147;52.388;13.390;2023-05-23T10:27:43;100603.47;;;20.09;100.00
36092;BME280;22147;52.388;13.390;2023-05-23T10:30:14;100607.44;;;19.94;100.00
36092;BME280;22147;52.388;13.390;2023-05-23T10:32:45;100622.19;;;19.21;100.00
36092;BME280;22147;52.388;13.390;2023-05-23T10:39:00;100612.44;;;18.67;100.00
36092;BME280;22147;52.388;13.390;2023-05-23T10:41:54;100621.75;;;18.75;100.00
36092;BME280;22147;52.388;13.390;2023-05-23T10:44:31;100623.69;;;18.67;100.00
36092;BME280;22147;52.388;13.390;2023-05-23T10:47:03;100616.53;;;18.77;100.00
36092;BME280;22147;52.388;13.390;2023-05-23T10:49:40;100623.28;;;19.06;100.00
36092;BME280;22147;52.388;13.390;2023-05-23T10:52:18;100624.09;;;19.06;100.00
36092;BME280;22147;52.388;13.390;2023-05-23T10:54:52;100633.75;;;19.09;100.00
36092;BME280;22147;52.388;13.390;2023-05-23T10:57:25;100627.25;;;19.01;100.00
36092;BME280;22147;52.388;13.390;2023-05-23T10:59:55;100630.59;;;18.77;100.00
36092;BME280;22147;52.388;13.390;2023-05-23T11:02:28;100631.78;;;18.72;100.00
36092;BME280;22147;52.388;13.390;2023-05-23T11:05:17;100641.31;;;18.64;100.00
36092;BME280;22147;52.388;13.390;2023-05-23T11:08:13;100637.44;;;18.38;100.00
36092;BME280;22147;52.388;13.390;2023-05-23T11:11:02;100640.91;;;18.28;100.00
36092;BME280;22147;52.388;13.390;2023-05-23T11:13:55;100643.72;;;18.28;100.00
36092;BME280;22147;52.388;13.390;2023-05-23T11:16:49;100641.16;;;18.16;100.00
36092;BME280;22147;52.388;13.390;2023-05-23T11:19:22;100640.63;;;17.76;100.00
36092;BME280;22147;52.388;13.390;2023-05-23T11:22:07;100647.78;;;17.74;100.00
36092;BME280;22147;52.388;13.390;2023-05-23T11:24:51;100636.75;;;17.84;100.00
36092;BME280;22147;52.388;13.390;2023-05-23T11:27:30;100646.00;;;17.62;100.00
36092;BME280;22147;52.388;13.390;2023-05-23T11:30:13;100642.34;;;17.58;100.00
36092;BME280;22147;52.388;13.390;2023-05-23T11:32:52;100646.22;;;17.76;100.00
36092;BME280;22147;52.388;13.390;2023-05-23T11:35:25;100642.94;;;17.70;100.00
36092;BME280;22147;52.388;13.390;2023-05-23T11:37:56;100637.22;;;17.63;100.00
36092;BME280;22147;52.388;13.390;2023-05-23T11:43:08;100641.69;;;17.41;100.00
36092;BME280;22147;52.388;13.390;2023-05-23T11:45:38;100646.81;;;17.36;100.00
36092;BME280;22147;52.388;13.390;2023-05-23T11:48:12;100644.91;;;17.43;100.00
36092;BME280;22147;52.388;13.390;2023-05-23T11:50:52;100642.03;;;17.40;100.00
36092;BME280;22147;52.388;13.390;2023-05-23T11:53:26;100640.63;;;17.26;100.00
36092;BME280;22147;52.388;13.390;2023-05-23T11:55:57;100650.50;;;17.17;100.00
36092;BME280;22147;52.388;13.390;2023-05-23T11:58:35;100651.19;;;17.10;100.00
36092;BME280;22147;52.388;13.390;2023-05-23T12:01:10;100648.50;;;17.17;100.00
36092;BME280;22147;52.388;13.390;2023-05-23T12:03:49;100657.91;;;17.28;100.00
36092;BME280;22147;52.388;13.390;2023-05-23T12:06:22;100660.47;;;17.14;100.00
36092;BME280;22147;52.388;13.390;2023-05-23T12:08:53;100657.22;;;17.12;100.00
36092;BME280;22147;52.388;13.390;2023-05-23T12:11:23;100657.03;;;17.01;100.00
36092;BME280;22147;52.388;13.390;2023-05-23T12:13:55;100650.69;;;17.04;100.00
36092;BME280;22147;52.388;13.390;2023-05-23T12:16:27;100659.66;;;17.14;100.00
36092;BME280;22147;52.388;13.390;2023-05-23T12:18:59;100660.09;;;17.16;100.00
36092;BME280;22147;52.388;13.390;2023-05-23T12:21:45;100663.66;;;17.13;100.00
36092;BME280;22147;52.388;13.390;2023-05-23T12:24:22;100654.41;;;17.12;100.00
36092;BME280;22147;52.388;13.390;2023-05-23T12:27:08;100658.59;;;17.22;100.00
36092;BME280;22147;52.388;13.390;2023-05-23T12:29:39;100657.47;;;17.26;100.00
36092;BME280;22147;52.388;13.390;2023-05-23T12:32:09;100666.03;;;17.11;100.00
36092;BME280;22147;52.388;13.390;2023-05-23T12:34:41;100662.22;;;16.99;100.00
36092;BME280;22147;52.388;13.390;2023-05-23T12:37:12;100675.81;;;16.97;100.00
36092;BME280;22147;52.388;13.390;2023-05-23T12:39:46;100660.97;;;16.97;100.00
36092;BME280;22147;52.388;13.390;2023-05-23T12:42:16;100672.19;;;16.97;100.00
36092;BME280;22147;52.388;13.390;2023-05-23T12:44:51;100674.88;;;16.89;100.00
36092;BME280;22147;52.388;13.390;2023-05-23T12:47:20;100675.47;;;16.79;100.00
36092;BME280;22147;52.388;13.390;2023-05-23T12:49:50;100678.06;;;16.68;100.00
36092;BME280;22147;52.388;13.390;2023-05-23T12:52:20;100672.88;;;16.71;100.00
36092;BME280;22147;52.388;13.390;2023-05-23T12:54:51;100675.69;;;16.71;100.00
36092;BME280;22147;52.388;13.390;2023-05-23T12:57:21;100676.50;;;16.71;100.00
36092;BME280;22147;52.388;13.390;2023-05-23T12:59:49;100674.13;;;16.73;100.00
36092;BME280;22147;52.388;13.390;2023-05-23T13:02:19;100672.13;;;16.93;100.00
36092;BME280;22147;52.388;13.390;2023-05-23T13:04:49;100677.81;;;17.20;100.00
36092;BME280;22147;52.388;13.390;2023-05-23T13:07:19;100666.75;;;17.30;100.00
36092;BME280;22147;52.388;13.390;2023-05-23T13:09:49;100675.09;;;17.50;100.00
36092;BME280;22147;52.388;13.390;2023-05-23T13:12:19;100666.91;;;17.64;100.00
36092;BME280;22147;52.388;13.390;2023-05-23T13:14:50;100671.63;;;17.83;100.00